Home > Products > Valid Products > TAF

000
FTUS42 KMFL 110300 AAA
TAFPBI
TAF AMD
KPBI 110300Z 1103/1124 30006KT P6SM SCT250
     FM110900 34004KT P6SM FEW250
     FM111500 01010KT P6SM SKC=



000
FTUS42 KMFL 110300 AAB
TAFAPF
TAF AMD
KAPF 110300Z 1103/1124 01006KT P6SM SCT250
     FM111500 04009KT P6SM FEW250=



000
FTUS42 KMFL 110300 AAA
TAFMIA
TAF AMD
KMIA 110300Z 1103/1124 33008KT P6SM SCT250
     FM111600 03009KT P6SM FEW250=



000
FTUS42 KMFL 110300 AAA
TAFMIA
TAF AMD
KMIA 110300Z 1103/1124 33008KT P6SM SCT250
     FM111600 03009KT P6SM FEW250=



000
FTUS42 KMFL 110300 AAA
TAFFLL
TAF AMD
KFLL 110300Z 1103/1124 30008KT P6SM SCT250
     FM110900 35004KT P6SM SCT250
     FM111600 02009KT P6SM SKC=



000
FTUS42 KMFL 110300 AAB
TAFAPF
TAF AMD
KAPF 110300Z 1103/1124 01006KT P6SM SCT250
     FM111500 04009KT P6SM FEW250=



000
FTUS42 KMFL 110300 AAA
TAFPBI
TAF AMD
KPBI 110300Z 1103/1124 30006KT P6SM SCT250
     FM110900 34004KT P6SM FEW250
     FM111500 01010KT P6SM SKC=



000
FTUS42 KMFL 110300 AAA
TAFPBI
TAF AMD
KPBI 110300Z 1103/1124 30006KT P6SM SCT250
     FM110900 34004KT P6SM FEW250
     FM111500 01010KT P6SM SKC=



000
FTUS42 KMFL 110300 AAA
TAFFLL
TAF AMD
KFLL 110300Z 1103/1124 30008KT P6SM SCT250
     FM110900 35004KT P6SM SCT250
     FM111600 02009KT P6SM SKC=



000
FTUS42 KMFL 110300 AAA
TAFFLL
TAF AMD
KFLL 110300Z 1103/1124 30008KT P6SM SCT250
     FM110900 35004KT P6SM SCT250
     FM111600 02009KT P6SM SKC=



000
FTUS42 KMFL 110300 AAB
TAFAPF
TAF AMD
KAPF 110300Z 1103/1124 01006KT P6SM SCT250
     FM111500 04009KT P6SM FEW250=



000
FTUS42 KMFL 110300 AAA
TAFMIA
TAF AMD
KMIA 110300Z 1103/1124 33008KT P6SM SCT250
     FM111600 03009KT P6SM FEW250=



000
FTUS42 KMFL 110040 AAA
TAFAPF
TAF AMD
KAPF 110040Z 1101/1124 31008KT P6SM BKN045 BKN250
     FM110500 01006KT P6SM SCT250
     FM111500 04009KT P6SM FEW250=



000
FTUS42 KMFL 110040 AAA
TAFAPF
TAF AMD
KAPF 110040Z 1101/1124 31008KT P6SM BKN045 BKN250
     FM110500 01006KT P6SM SCT250
     FM111500 04009KT P6SM FEW250=



000
FTUS42 KMFL 110040 AAA
TAFAPF
TAF AMD
KAPF 110040Z 1101/1124 31008KT P6SM BKN045 BKN250
     FM110500 01006KT P6SM SCT250
     FM111500 04009KT P6SM FEW250=



000
FTUS42 KMFL 102324
TAFPBI
TAF
KPBI 102324Z 1100/1124 30004KT P6SM BKN250
     FM110900 34004KT P6SM FEW250
     FM111500 01010KT P6SM SKC=



000
FTUS42 KMFL 102324
TAFMIA
TAF
KMIA 102324Z 1100/1124 29004KT P6SM BKN250
     FM110500 34005KT P6SM SCT250
     FM111600 03009KT P6SM FEW250=



000
FTUS42 KMFL 102324
TAFPBI
TAF
KPBI 102324Z 1100/1124 30004KT P6SM BKN250
     FM110900 34004KT P6SM FEW250
     FM111500 01010KT P6SM SKC=



000
FTUS42 KMFL 102324
TAFMIA
TAF
KMIA 102324Z 1100/1124 29004KT P6SM BKN250
     FM110500 34005KT P6SM SCT250
     FM111600 03009KT P6SM FEW250=



000
FTUS42 KMFL 102324
TAFAPF
TAF
KAPF 102324Z 1100/1124 31008KT P6SM BKN250
     FM110500 01006KT P6SM SCT250
     FM111500 04009KT P6SM FEW250=



000
FTUS42 KMFL 102324
TAFFLL
TAF
KFLL 102324Z 1100/1124 29005KT P6SM BKN250
     FM110900 35004KT P6SM SCT250
     FM111600 02009KT P6SM SKC=



000
FTUS42 KMFL 102324
TAFFLL
TAF
KFLL 102324Z 1100/1124 29005KT P6SM BKN250
     FM110900 35004KT P6SM SCT250
     FM111600 02009KT P6SM SKC=



000
FTUS42 KMFL 102324
TAFMIA
TAF
KMIA 102324Z 1100/1124 29004KT P6SM BKN250
     FM110500 34005KT P6SM SCT250
     FM111600 03009KT P6SM FEW250=



000
FTUS42 KMFL 102324
TAFPBI
TAF
KPBI 102324Z 1100/1124 30004KT P6SM BKN250
     FM110900 34004KT P6SM FEW250
     FM111500 01010KT P6SM SKC=



000
FTUS42 KMFL 102324
TAFFLL
TAF
KFLL 102324Z 1100/1124 29005KT P6SM BKN250
     FM110900 35004KT P6SM SCT250
     FM111600 02009KT P6SM SKC=



000
FTUS42 KMFL 102324
TAFAPF
TAF
KAPF 102324Z 1100/1124 31008KT P6SM BKN250
     FM110500 01006KT P6SM SCT250
     FM111500 04009KT P6SM FEW250=



000
FTUS42 KMFL 102324
TAFAPF
TAF
KAPF 102324Z 1100/1124 31008KT P6SM BKN250
     FM110500 01006KT P6SM SCT250
     FM111500 04009KT P6SM FEW250=



000
FTUS42 KMFL 102100 AAA
TAFPBI
TAF AMD
KPBI 102100Z 1021/1118 30010KT P6SM FEW060 BKN250
     FM110100 30006KT P6SM SKC
     FM111400 33010KT P6SM SKC=



000
FTUS42 KMFL 102100 AAA
TAFAPF
TAF AMD
KAPF 102100Z 1021/1118 31010KT P6SM FEW070 BKN250
     FM110100 34005KT P6SM SKC
     FM111400 03008KT P6SM SKC=



000
FTUS42 KMFL 102100 AAA
TAFFLL
TAF AMD
KFLL 102100Z 1021/1118 29007KT P6SM BKN250
     FM110100 31006KT P6SM SKC
     FM111400 34008KT P6SM SKC=



000
FTUS42 KMFL 102100 AAA
TAFMIA
TAF AMD
KMIA 102100Z 1021/1118 30007KT P6SM FEW045 BKN250
     FM110000 31005KT P6SM SKC
     FM111400 34008KT P6SM SKC=



000
FTUS42 KMFL 101725
TAFFLL
TAF
KFLL 101725Z 1018/1118 32008KT P6SM SCT300
     FM110100 31006KT P6SM SKC
     FM111400 34008KT P6SM SKC=



000
FTUS42 KMFL 101725
TAFAPF
TAF
KAPF 101725Z 1018/1118 03008KT P6SM SCT060 BKN250
     FM101900 30008KT P6SM SCT250
     FM110100 34005KT P6SM SKC
     FM111400 03008KT P6SM SKC=



000
FTUS42 KMFL 101725
TAFMIA
TAF
KMIA 101725Z 1018/1118 34008KT P6SM FEW050 SCT250
     FM110000 31005KT P6SM SKC
     FM111400 34008KT P6SM SKC=



000
FTUS42 KMFL 101725
TAFPBI
TAF
KPBI 101725Z 1018/1118 31010KT P6SM FEW050 SCT250
     FM110100 30006KT P6SM SKC
     FM111400 33010KT P6SM SKC=



000
FTUS42 KMFL 101725
TAFAPF
TAF
KAPF 101725Z 1018/1118 03008KT P6SM SCT060 BKN250
     FM101900 30008KT P6SM SCT250
     FM110100 34005KT P6SM SKC
     FM111400 03008KT P6SM SKC=



000
FTUS42 KMFL 101725
TAFMIA
TAF
KMIA 101725Z 1018/1118 34008KT P6SM FEW050 SCT250
     FM110000 31005KT P6SM SKC
     FM111400 34008KT P6SM SKC=



000
FTUS42 KMFL 101725
TAFFLL
TAF
KFLL 101725Z 1018/1118 32008KT P6SM SCT300
     FM110100 31006KT P6SM SKC
     FM111400 34008KT P6SM SKC=



000
FTUS42 KMFL 101725
TAFFLL
TAF
KFLL 101725Z 1018/1118 32008KT P6SM SCT300
     FM110100 31006KT P6SM SKC
     FM111400 34008KT P6SM SKC=



000
FTUS42 KMFL 101725
TAFMIA
TAF
KMIA 101725Z 1018/1118 34008KT P6SM FEW050 SCT250
     FM110000 31005KT P6SM SKC
     FM111400 34008KT P6SM SKC=



000
FTUS42 KMFL 101725
TAFPBI
TAF
KPBI 101725Z 1018/1118 31010KT P6SM FEW050 SCT250
     FM110100 30006KT P6SM SKC
     FM111400 33010KT P6SM SKC=



000
FTUS42 KMFL 101725
TAFAPF
TAF
KAPF 101725Z 1018/1118 03008KT P6SM SCT060 BKN250
     FM101900 30008KT P6SM SCT250
     FM110100 34005KT P6SM SKC
     FM111400 03008KT P6SM SKC=



000
FTUS42 KMFL 101725
TAFPBI
TAF
KPBI 101725Z 1018/1118 31010KT P6SM FEW050 SCT250
     FM110100 30006KT P6SM SKC
     FM111400 33010KT P6SM SKC=



000
FTUS42 KMFL 101505 AAA
TAFPBI
TAF AMD
KPBI 101505Z 1015/1112 34010KT P6SM FEW045 BKN250
     FM101600 32012KT P6SM SCT050 SCT200
     FM110000 30006KT P6SM SCT250=



000
FTUS42 KMFL 101505 AAA
TAFAPF
TAF AMD
KAPF 101505Z 1015/1112 03010KT P6SM SCT060 BKN250
     FM101900 29008KT P6SM SCT200
     FM110000 33005KT P6SM SCT250=



000
FTUS42 KMFL 101505 AAA
TAFFLL
TAF AMD
KFLL 101505Z 1015/1112 01010KT P6SM SCT250
     FM110100 31006KT P6SM SCT250=



000
FTUS42 KMFL 101505 AAA
TAFMIA
TAF AMD
KMIA 101505Z 1015/1112 02008KT P6SM SCT045 SCT250
     FM110000 31005KT P6SM SCT250=



000
FTUS42 KMFL 101124
TAFFLL
TAF
KFLL 101124Z 1012/1112 32006KT P6SM SCT050 SCT200
     FM101400 33010KT P6SM SCT200
     FM110100 31006KT P6SM SCT250=



000
FTUS42 KMFL 101124
TAFPBI
TAF
KPBI 101124Z 1012/1112 34010KT P6SM BKN200
     FM101600 30012KT P6SM SCT050 SCT200
     FM110000 30006KT P6SM SCT250=



000
FTUS42 KMFL 101124
TAFAPF
TAF
KAPF 101124Z 1012/1112 35008KT P6SM BKN045 BKN200
     FM101400 02010KT P6SM SCT050 BKN200
     FM101900 29008KT P6SM SCT200
     FM110000 33005KT P6SM SCT250=



000
FTUS42 KMFL 101124
TAFMIA
TAF
KMIA 101124Z 1012/1112 33008KT P6SM SCT050 SCT200
     FM110000 31005KT P6SM SCT250=



000
FTUS42 KMFL 100538
TAFMIA
TAF
KMIA 100538Z 1006/1106 26006KT P6SM FEW050 BKN200
     FM101700 31009KT P6SM FEW050 SCT200
     FM102300 30006KT P6SM SCT250=



000
FTUS42 KMFL 100538
TAFPBI
TAF
KPBI 100538Z 1006/1106 29006KT P6SM SCT050 BKN200
     FM101100 32010KT P6SM FEW050 BKN200
     FM101600 30011G18KT P6SM FEW050 SCT200
     FM102300 29008KT P6SM SCT250=



000
FTUS42 KMFL 100538
TAFAPF
TAF
KAPF 100538Z 1006/1106 32013KT P6SM BKN050 BKN200
     FM101600 29010KT P6SM SCT050 BKN250
     FM110100 34005KT P6SM SCT250=



000
FTUS42 KMFL 100538
TAFMIA
TAF
KMIA 100538Z 1006/1106 26006KT P6SM FEW050 BKN200
     FM101700 31009KT P6SM FEW050 SCT200
     FM102300 30006KT P6SM SCT250=



000
FTUS42 KMFL 100538
TAFAPF
TAF
KAPF 100538Z 1006/1106 32013KT P6SM BKN050 BKN200
     FM101600 29010KT P6SM SCT050 BKN250
     FM110100 34005KT P6SM SCT250=



000
FTUS42 KMFL 100538
TAFFLL
TAF
KFLL 100538Z 1006/1106 27008KT P6SM SCT050 BKN200
     FM101600 31011G18KT P6SM FEW050 SCT200
     FM102300 30008KT P6SM SCT250=



000
FTUS42 KMFL 100538
TAFPBI
TAF
KPBI 100538Z 1006/1106 29006KT P6SM SCT050 BKN200
     FM101100 32010KT P6SM FEW050 BKN200
     FM101600 30011G18KT P6SM FEW050 SCT200
     FM102300 29008KT P6SM SCT250=



000
FTUS42 KMFL 100538
TAFMIA
TAF
KMIA 100538Z 1006/1106 26006KT P6SM FEW050 BKN200
     FM101700 31009KT P6SM FEW050 SCT200
     FM102300 30006KT P6SM SCT250=



000
FTUS42 KMFL 100538
TAFFLL
TAF
KFLL 100538Z 1006/1106 27008KT P6SM SCT050 BKN200
     FM101600 31011G18KT P6SM FEW050 SCT200
     FM102300 30008KT P6SM SCT250=



000
FTUS42 KMFL 100257 AAA
TAFMIA
TAF AMD
KMIA 100257Z 1003/1024 27005KT P6SM BKN200
     FM100800 34006KT P6SM BKN150
     FM101800 29011KT P6SM SCT200=



000
FTUS42 KMFL 100257 AAA
TAFPBI
TAF AMD
KPBI 100257Z 1003/1024 27006KT P6SM BKN200
     FM100800 32010KT P6SM BKN200
     FM101700 30015G20KT P6SM SCT200=



000
FTUS42 KMFL 100257 AAA
TAFAPF
TAF AMD
KAPF 100257Z 1003/1024 29013KT P6SM SCT050 BKN200
     FM100900 35008KT P6SM SCT200
     FM101900 30010KT P6SM SCT250=



000
FTUS42 KMFL 100257 AAA
TAFFLL
TAF AMD
KFLL 100257Z 1003/1024 28007KT P6SM BKN200
     FM100800 34008KT P6SM BKN200
     FM101700 29010KT P6SM SCT200=



000
FTUS42 KMFL 092328
TAFAPF
TAF
KAPF 092328Z 1000/1024 29011KT P6SM BKN060 BKN200
     FM100900 35008KT P6SM SCT200
     FM101900 30010KT P6SM SCT250=



000
FTUS42 KMFL 092328
TAFMIA
TAF
KMIA 092328Z 1000/1024 28009KT P6SM SCT050 BKN200
     FM100800 34006KT P6SM BKN150
     FM101800 29011KT P6SM SCT200=



000
FTUS42 KMFL 092328
TAFFLL
TAF
KFLL 092328Z 1000/1024 27012KT P6SM SCT060 BKN200
     FM100800 34008KT P6SM BKN200
     FM101700 29010KT P6SM SCT200=



000
FTUS42 KMFL 092328
TAFPBI
TAF
KPBI 092328Z 1000/1024 28013KT P6SM SCT070 BKN200
     FM100800 32010KT P6SM BKN200
     FM101700 30015G20KT P6SM SCT200=



000
FTUS42 KMFL 092328
TAFAPF
TAF
KAPF 092328Z 1000/1024 29011KT P6SM BKN060 BKN200
     FM100900 35008KT P6SM SCT200
     FM101900 30010KT P6SM SCT250=



000
FTUS42 KMFL 092328
TAFAPF
TAF
KAPF 092328Z 1000/1024 29011KT P6SM BKN060 BKN200
     FM100900 35008KT P6SM SCT200
     FM101900 30010KT P6SM SCT250=



000
FTUS42 KMFL 092328
TAFPBI
TAF
KPBI 092328Z 1000/1024 28013KT P6SM SCT070 BKN200
     FM100800 32010KT P6SM BKN200
     FM101700 30015G20KT P6SM SCT200=



000
FTUS42 KMFL 092328
TAFFLL
TAF
KFLL 092328Z 1000/1024 27012KT P6SM SCT060 BKN200
     FM100800 34008KT P6SM BKN200
     FM101700 29010KT P6SM SCT200=



000
FTUS42 KMFL 092328
TAFMIA
TAF
KMIA 092328Z 1000/1024 28009KT P6SM SCT050 BKN200
     FM100800 34006KT P6SM BKN150
     FM101800 29011KT P6SM SCT200=



000
FTUS42 KMFL 092107 AAA
TAFMIA
TAF AMD
KMIA 092107Z 0921/1018 28011G21KT P6SM SCT045 BKN200
     FM100000 29009KT P6SM BKN070
     FM100600 28006KT P6SM OVC070=



000
FTUS42 KMFL 092107 AAA
TAFAPF
TAF AMD
KAPF 092107Z 0921/1018 29014G23KT P6SM SCT045 BKN200
     FM100000 29010KT P6SM OVC070
     FM100600 33008KT P6SM OVC050=



000
FTUS42 KMFL 092107 AAA
TAFFLL
TAF AMD
KFLL 092107Z 0921/1018 27013G19KT P6SM SCT040 OVC200
     FM092300 27012KT P6SM BKN070
     FM100800 29008KT P6SM OVC070=



000
FTUS42 KMFL 092107 AAA
TAFPBI
TAF AMD
KPBI 092107Z 0921/1018 27012G20KT P6SM BKN050 BKN200
     FM100000 29013KT P6SM BKN070
     FM100900 30009KT P6SM OVC070=



000
FTUS42 KMFL 091729
TAFPBI
TAF
KPBI 091729Z 0918/1018 29010G20KT P6SM BKN070
     FM092300 29013KT P6SM BKN070
     FM100900 30009KT P6SM OVC070=



000
FTUS42 KMFL 091729
TAFFLL
TAF
KFLL 091729Z 0918/1018 30010G20KT P6SM BKN070 OVC250
     FM092300 27012KT P6SM BKN070
     FM100800 29008KT P6SM OVC070=



000
FTUS42 KMFL 091729
TAFAPF
TAF
KAPF 091729Z 0918/1018 29014G23KT P6SM OVC070
     FM092300 29010KT P6SM OVC070
     FM100600 33008KT P6SM OVC050=



000
FTUS42 KMFL 091729
TAFPBI
TAF
KPBI 091729Z 0918/1018 29010G20KT P6SM BKN070
     FM092300 29013KT P6SM BKN070
     FM100900 30009KT P6SM OVC070=



000
FTUS42 KMFL 091729
TAFAPF
TAF
KAPF 091729Z 0918/1018 29014G23KT P6SM OVC070
     FM092300 29010KT P6SM OVC070
     FM100600 33008KT P6SM OVC050=



000
FTUS42 KMFL 091729
TAFMIA
TAF
KMIA 091729Z 0918/1018 29011G21KT P6SM BKN070
     FM100000 29009KT P6SM BKN070
     FM100600 28006KT P6SM OVC070=



000
FTUS42 KMFL 091729
TAFMIA
TAF
KMIA 091729Z 0918/1018 29011G21KT P6SM BKN070
     FM100000 29009KT P6SM BKN070
     FM100600 28006KT P6SM OVC070=



000
FTUS42 KMFL 091729
TAFFLL
TAF
KFLL 091729Z 0918/1018 30010G20KT P6SM BKN070 OVC250
     FM092300 27012KT P6SM BKN070
     FM100800 29008KT P6SM OVC070=



000
FTUS42 KMFL 091729
TAFMIA
TAF
KMIA 091729Z 0918/1018 29011G21KT P6SM BKN070
     FM100000 29009KT P6SM BKN070
     FM100600 28006KT P6SM OVC070=



000
FTUS42 KMFL 091729
TAFAPF
TAF
KAPF 091729Z 0918/1018 29014G23KT P6SM OVC070
     FM092300 29010KT P6SM OVC070
     FM100600 33008KT P6SM OVC050=



000
FTUS42 KMFL 091729
TAFPBI
TAF
KPBI 091729Z 0918/1018 29010G20KT P6SM BKN070
     FM092300 29013KT P6SM BKN070
     FM100900 30009KT P6SM OVC070=



000
FTUS42 KMFL 091729
TAFFLL
TAF
KFLL 091729Z 0918/1018 30010G20KT P6SM BKN070 OVC250
     FM092300 27012KT P6SM BKN070
     FM100800 29008KT P6SM OVC070=



000
FTUS42 KMFL 091432 AAB
TAFAPF
TAF AMD
KAPF 091432Z 0915/1012 32012G18KT P6SM SCT025
      TEMPO 0915/0916 BKN025
     FM092300 29011KT P6SM BKN070 BKN250
     FM100600 33008KT P6SM SCT070 SCT250=



000
FTUS42 KMFL 091432 AAA
TAFFLL
TAF AMD
KFLL 091432Z 0915/1012 29013G19KT P6SM OVC250
     FM092300 27012KT P6SM BKN070 BKN250=



000
FTUS42 KMFL 091432 AAA
TAFPBI
TAF AMD
KPBI 091432Z 0915/1012 29015KT P6SM FEW045 BKN200
     FM092200 29013KT P6SM BKN070 BKN250=



000
FTUS42 KMFL 091432 AAA
TAFMIA
TAF AMD
KMIA 091432Z 0915/1012 29010G17KT P6SM SCT060 OVC250
     FM100000 29009KT P6SM BKN070 BKN250=



000
FTUS42 KMFL 091406 AAA
TAFAPF
TAF AMD
KAPF 091406Z 0914/1012 31010G18KT P6SM BKN030 OVC040
      TEMPO 0914/0916 BKN025
     FM092300 29011KT P6SM BKN070 BKN250
     FM100600 33008KT P6SM SCT070 SCT250=



000
FTUS42 KMFL 091406 AAA
TAFAPF
TAF AMD
KAPF 091406Z 0914/1012 31010G18KT P6SM BKN030 OVC040
      TEMPO 0914/0916 BKN025
     FM092300 29011KT P6SM BKN070 BKN250
     FM100600 33008KT P6SM SCT070 SCT250=



000
FTUS42 KMFL 091406 AAA
TAFAPF
TAF AMD
KAPF 091406Z 0914/1012 31010G18KT P6SM BKN030 OVC040
      TEMPO 0914/0916 BKN025
     FM092300 29011KT P6SM BKN070 BKN250
     FM100600 33008KT P6SM SCT070 SCT250=



000
FTUS42 KMFL 091120
TAFMIA
TAF
KMIA 091120Z 0912/1012 28012G22KT P6SM SCT050 BKN070 BKN250
     FM100000 29009KT P6SM BKN070 BKN250=



000
FTUS42 KMFL 091120
TAFFLL
TAF
KFLL 091120Z 0912/1012 28015G23KT P6SM SCT050 BKN070 BKN250
     FM092300 27012KT P6SM BKN070 BKN250=



000
FTUS42 KMFL 091120
TAFAPF
TAF
KAPF 091120Z 0912/1012 30016G25KT P6SM BKN050 BKN070
     FM092300 29011KT P6SM BKN070 BKN250
     FM100600 33008KT P6SM SCT070 SCT250=



000
FTUS42 KMFL 091120
TAFPBI
TAF
KPBI 091120Z 0912/1012 28015G25KT P6SM SCT050 BKN070 BKN250
     FM092200 29013KT P6SM BKN070 BKN250=



000
FTUS42 KMFL 091120
TAFAPF
TAF
KAPF 091120Z 0912/1012 30016G25KT P6SM BKN050 BKN070
     FM092300 29011KT P6SM BKN070 BKN250
     FM100600 33008KT P6SM SCT070 SCT250=



000
FTUS42 KMFL 090529
TAFFLL
TAF
KFLL 090529Z 0906/1006 22009KT P6SM BKN250
     FM090800 27013G20KT P6SM VCSH SCT035 BKN050 BKN080
     FM091200 28015G23KT P6SM BKN050 BKN250
     FM092300 27011KT P6SM BKN050 BKN250=



000
FTUS42 KMFL 090529
TAFMIA
TAF
KMIA 090529Z 0906/1006 21008KT P6SM BKN250
     FM090900 28010G18KT P6SM VCSH SCT035 BKN050 BKN080
     FM091400 29011G22KT P6SM BKN050 BKN250
     FM092300 27009KT P6SM BKN050 BKN250=



000
FTUS42 KMFL 090529
TAFAPF
TAF
KAPF 090529Z 0906/1006 27013G22KT P6SM VCSH SCT040 BKN050 BKN080
     FM091100 29016G25KT P6SM BKN050 BKN250
     FM092300 27011KT P6SM BKN050 BKN250=



000
FTUS42 KMFL 090529
TAFPBI
TAF
KPBI 090529Z 0906/1006 22011KT P6SM SCT250
     FM090700 26013G20KT P6SM VCSH SCT035 BKN050 BKN090
     FM091200 28015G25KT P6SM BKN050 BKN250
     FM092200 25013KT P6SM BKN050 BKN250=



000
FTUS42 KMFL 090529
TAFFLL
TAF
KFLL 090529Z 0906/1006 22009KT P6SM BKN250
     FM090800 27013G20KT P6SM VCSH SCT035 BKN050 BKN080
     FM091200 28015G23KT P6SM BKN050 BKN250
     FM092300 27011KT P6SM BKN050 BKN250=



000
FTUS42 KMFL 090529
TAFAPF
TAF
KAPF 090529Z 0906/1006 27013G22KT P6SM VCSH SCT040 BKN050 BKN080
     FM091100 29016G25KT P6SM BKN050 BKN250
     FM092300 27011KT P6SM BKN050 BKN250=



000
FTUS42 KMFL 090529
TAFPBI
TAF
KPBI 090529Z 0906/1006 22011KT P6SM SCT250
     FM090700 26013G20KT P6SM VCSH SCT035 BKN050 BKN090
     FM091200 28015G25KT P6SM BKN050 BKN250
     FM092200 25013KT P6SM BKN050 BKN250=



000
FTUS42 KMFL 090529
TAFMIA
TAF
KMIA 090529Z 0906/1006 21008KT P6SM BKN250
     FM090900 28010G18KT P6SM VCSH SCT035 BKN050 BKN080
     FM091400 29011G22KT P6SM BKN050 BKN250
     FM092300 27009KT P6SM BKN050 BKN250=



000
FTUS42 KMFL 090333 AAC
TAFPBI
TAF AMD
KPBI 090333Z 0904/0924 22011KT P6SM SCT250
     FM090700 26013G20KT P6SM VCSH SCT035 BKN050 BKN080
     FM091200 29015G25KT P6SM BKN050 BKN250=



000
FTUS42 KMFL 090333 AAC
TAFFLL
TAF AMD
KFLL 090333Z 0904/0924 22009KT P6SM BKN250
     FM090800 27013G20KT P6SM VCSH SCT035 BKN050 BKN080
     FM091200 28015G23KT P6SM BKN050 BKN250=



000
FTUS42 KMFL 090333 AAC
TAFAPF
TAF AMD
KAPF 090333Z 0904/0924 23010KT P6SM SCT080 BKN250
     FM090500 27013G22KT P6SM VCSH SCT030 BKN040 BKN060
     FM091100 29016G25KT P6SM BKN050 BKN250=



000
FTUS42 KMFL 090333 AAC
TAFMIA
TAF AMD
KMIA 090333Z 0904/0924 21008KT P6SM BKN250
     FM090900 28012G20KT P6SM VCSH SCT035 BKN050 BKN080
     FM091400 27011G22KT P6SM BKN050 BKN250=



000
FTUS42 KMFL 090026 RRA
TAFAPF
TAF
KAPF 090026Z 0900/0924 21010KT P6SM SCT050
     FM090100 26006KT P6SM BKN050
     FM090600 28010G20KT P6SM BKN050
     FM091300 30016G26KT P6SM OVC040=



000
FTUS42 KMFL 090026 RRA
TAFPBI
TAF
KPBI 090026Z 0900/0924 31011KT P6SM SCT250
     FM090400 27014G24KT P6SM SCT035 BKN050
     FM091400 31015G25KT P6SM BKN050=



000
FTUS42 KMFL 090026 RRA
TAFFLL
TAF
KFLL 090026Z 0900/0924 25010KT P6SM SCT250
     FM091300 31012G24KT P6SM BKN050=



000
FTUS42 KMFL 090026 RRA
TAFMIA
TAF
KMIA 090026Z 0900/0924 24009KT P6SM SCT250
     FM091300 29012G22KT P6SM BKN050=



000
FTUS42 KMFL 082201 AAB
TAFAPF
TAF AMD
KAPF 082201Z 0822/0918 21010KT P6SM SCT050
     FM090100 26006KT P6SM BKN050
     FM090600 28010G20KT P6SM BKN050
     FM091300 30016G26KT P6SM OVC040=



000
FTUS42 KMFL 082201 AAB
TAFAPF
TAF AMD
KAPF 082201Z 0822/0918 21010KT P6SM SCT050
     FM090100 26006KT P6SM BKN050
     FM090600 28010G20KT P6SM BKN050
     FM091300 30016G26KT P6SM OVC040=



000
FTUS42 KMFL 082201 AAB
TAFAPF
TAF AMD
KAPF 082201Z 0822/0918 21010KT P6SM SCT050
     FM090100 26006KT P6SM BKN050
     FM090600 28010G20KT P6SM BKN050
     FM091300 30016G26KT P6SM OVC040=



000
FTUS42 KMFL 082201 AAB
TAFMIA
TAF AMD
KMIA 082201Z 0822/0918 24009KT P6SM SCT250
     FM091300 29012G22KT P6SM BKN050=



000
FTUS42 KMFL 082200 AAB
TAFFLL
TAF AMD
KFLL 082200Z 0822/0918 26010G15KT P6SM SCT250
     FM082300 25010KT P6SM SCT250
     FM091300 31012G24KT P6SM BKN050=



000
FTUS42 KMFL 082159 AAB
TAFPBI
TAF AMD
KPBI 082159Z 0822/0918 31011KT P6SM SCT250
     FM090400 27014G24KT P6SM SCT035 BKN050
     FM091400 31015G25KT P6SM BKN050=



000
FTUS42 KMFL 081806 AAA
TAFMIA
TAF AMD
KMIA 081806Z 0818/0918 28008KT P6SM SCT250
     FM082000 24009KT P6SM SCT250
     FM091300 29012G22KT P6SM BKN050=



000
FTUS42 KMFL 081806 AAA
TAFFLL
TAF AMD
KFLL 081806Z 0818/0918 33006KT P6SM SCT250
     FM082300 25010KT P6SM SCT250
     FM091300 31012G24KT P6SM BKN050=



000
FTUS42 KMFL 081806 AAA
TAFPBI
TAF AMD
KPBI 081806Z 0818/0918 31011KT P6SM SCT250
     FM090400 27014G24KT P6SM SCT035 BKN050
     FM091400 31015G25KT P6SM BKN050=



000
FTUS42 KMFL 081806 AAA
TAFAPF
TAF AMD
KAPF 081806Z 0818/0918 VRB04KT P6SM SKC
     FM082100 25010KT P6SM SCT050
     FM090100 26006KT P6SM BKN050
     FM090600 28010G20KT P6SM BKN050
     FM091300 30016G26KT P6SM OVC040=



000
FTUS42 KMFL 081740
TAFFLL
TAF
KFLL 081740Z 0818/0918 33010KT P6SM SCT250
     FM081900 25012G18KT P6SM SCT250
     FM090200 28010KT P6SM SCT035 BKN050 BKN200=



000
FTUS42 KMFL 081740
TAFAPF
TAF
KAPF 081740Z 0818/0918 VRB04KT P6SM SKC
     FM082300 25012G18KT P6SM BKN040
     FM090200 26008KT P6SM OVC050=



000
FTUS42 KMFL 081740
TAFPBI
TAF
KPBI 081740Z 0818/0918 31008G18KT P6SM SCT250
     FM081900 25015G22KT P6SM SCT250
     FM090200 27012KT P6SM SCT035 BKN050 BKN200=



000
FTUS42 KMFL 081740
TAFMIA
TAF
KMIA 081740Z 0818/0918 28008KT P6SM SCT250
     FM082000 24011G18KT P6SM SCT250
     FM090200 27009KT P6SM SCT035 BKN050 BKN200=



000
FTUS42 KMFL 081536 AAA
TAFAPF
TAF AMD
KAPF 081536Z 0816/0912 08003KT P6SM SCT050
     FM081700 24010KT P6SM BKN050
     FM082300 25012G18KT P6SM VCSH SCT020 BKN040 BKN200=



000
FTUS42 KMFL 081536 AAA
TAFFLL
TAF AMD
KFLL 081536Z 0816/0912 30007KT P6SM FEW300
     FM081900 25012G18KT P6SM SCT250
     FM090200 28010KT P6SM SCT035 BKN050 BKN200=



000
FTUS42 KMFL 081536 AAA
TAFPBI
TAF AMD
KPBI 081536Z 0816/0912 29011KT P6SM SCT250
     FM081900 25015G22KT P6SM SCT250
     FM090200 27012KT P6SM SCT035 BKN050 BKN200=



000
FTUS42 KMFL 081536 AAA
TAFMIA
TAF AMD
KMIA 081536Z 0816/0912 32005KT P6SM FEW300
     FM082000 24011G18KT P6SM SCT250
     FM090200 27009KT P6SM SCT035 BKN050 BKN200=



000
FTUS42 KMFL 081536 AAA
TAFPBI
TAF AMD
KPBI 081536Z 0816/0912 29011KT P6SM SCT250
     FM081900 25015G22KT P6SM SCT250
     FM090200 27012KT P6SM SCT035 BKN050 BKN200=



000
FTUS42 KMFL 081536 AAA
TAFMIA
TAF AMD
KMIA 081536Z 0816/0912 32005KT P6SM FEW300
     FM082000 24011G18KT P6SM SCT250
     FM090200 27009KT P6SM SCT035 BKN050 BKN200=



000
FTUS42 KMFL 081536 AAA
TAFFLL
TAF AMD
KFLL 081536Z 0816/0912 30007KT P6SM FEW300
     FM081900 25012G18KT P6SM SCT250
     FM090200 28010KT P6SM SCT035 BKN050 BKN200=



000
FTUS42 KMFL 081536 AAA
TAFAPF
TAF AMD
KAPF 081536Z 0816/0912 08003KT P6SM SCT050
     FM081700 24010KT P6SM BKN050
     FM082300 25012G18KT P6SM VCSH SCT020 BKN040 BKN200=



000
FTUS42 KMFL 081120
TAFMIA
TAF
KMIA 081120Z 0812/0912 33007KT P6SM SCT250
     FM082000 24011G18KT P6SM SCT250
     FM090200 27009KT P6SM SCT035 BKN050 BKN200=



000
FTUS42 KMFL 081120
TAFPBI
TAF
KPBI 081120Z 0812/0912 30008KT P6SM SCT250
     FM081900 25015G22KT P6SM SCT250
     FM090200 27012KT P6SM SCT035 BKN050 BKN200=



000
FTUS42 KMFL 081120
TAFPBI
TAF
KPBI 081120Z 0812/0912 30008KT P6SM SCT250
     FM081900 25015G22KT P6SM SCT250
     FM090200 27012KT P6SM SCT035 BKN050 BKN200=



000
FTUS42 KMFL 081120
TAFPBI
TAF
KPBI 081120Z 0812/0912 30008KT P6SM SCT250
     FM081900 25015G22KT P6SM SCT250
     FM090200 27012KT P6SM SCT035 BKN050 BKN200=



000
FTUS42 KMFL 081120
TAFMIA
TAF
KMIA 081120Z 0812/0912 33007KT P6SM SCT250
     FM082000 24011G18KT P6SM SCT250
     FM090200 27009KT P6SM SCT035 BKN050 BKN200=



000
FTUS42 KMFL 081120
TAFFLL
TAF
KFLL 081120Z 0812/0912 29006KT P6SM SCT250
     FM081900 25012G18KT P6SM SCT250
     FM090200 28010KT P6SM SCT035 BKN050 BKN200=



000
FTUS42 KMFL 081120
TAFAPF
TAF
KAPF 081120Z 0812/0912 04006KT P6SM FEW040 SCT250
     FM081700 24010KT P6SM SCT040 SCT250
     FM082300 25012G18KT P6SM VCSH SCT020 BKN040 BKN200=



000
FTUS42 KMFL 081120
TAFAPF
TAF
KAPF 081120Z 0812/0912 04006KT P6SM FEW040 SCT250
     FM081700 24010KT P6SM SCT040 SCT250
     FM082300 25012G18KT P6SM VCSH SCT020 BKN040 BKN200=



000
FTUS42 KMFL 081120
TAFFLL
TAF
KFLL 081120Z 0812/0912 29006KT P6SM SCT250
     FM081900 25012G18KT P6SM SCT250
     FM090200 28010KT P6SM SCT035 BKN050 BKN200=



000
FTUS42 KMFL 080529
TAFAPF
TAF
KAPF 080529Z 0806/0906 02006KT P6SM SCT250
     FM081700 24009KT P6SM SCT040 SCT250=



000
FTUS42 KMFL 080529
TAFPBI
TAF
KPBI 080529Z 0806/0906 30008KT P6SM SCT250
     FM081900 26015G22KT P6SM SCT250
     FM090200 25010KT P6SM SCT035 BKN250=



000
FTUS42 KMFL 080529
TAFFLL
TAF
KFLL 080529Z 0806/0906 30009KT P6SM SCT250
     FM081900 25012G18KT P6SM SCT250
     FM090200 25010KT P6SM SCT035 BKN250=



000
FTUS42 KMFL 080529
TAFMIA
TAF
KMIA 080529Z 0806/0906 31010KT P6SM SCT250
     FM082000 25011G18KT P6SM SCT250
     FM090200 25009KT P6SM SCT035 BKN250=



000
FTUS42 KMFL 080529
TAFAPF
TAF
KAPF 080529Z 0806/0906 02006KT P6SM SCT250
     FM081700 24009KT P6SM SCT040 SCT250=



000
FTUS42 KMFL 080529
TAFMIA
TAF
KMIA 080529Z 0806/0906 31010KT P6SM SCT250
     FM082000 25011G18KT P6SM SCT250
     FM090200 25009KT P6SM SCT035 BKN250=



000
FTUS42 KMFL 080529
TAFFLL
TAF
KFLL 080529Z 0806/0906 30009KT P6SM SCT250
     FM081900 25012G18KT P6SM SCT250
     FM090200 25010KT P6SM SCT035 BKN250=



000
FTUS42 KMFL 080529
TAFMIA
TAF
KMIA 080529Z 0806/0906 31010KT P6SM SCT250
     FM082000 25011G18KT P6SM SCT250
     FM090200 25009KT P6SM SCT035 BKN250=



000
FTUS42 KMFL 080529
TAFPBI
TAF
KPBI 080529Z 0806/0906 30008KT P6SM SCT250
     FM081900 26015G22KT P6SM SCT250
     FM090200 25010KT P6SM SCT035 BKN250=



000
FTUS42 KMFL 080529
TAFAPF
TAF
KAPF 080529Z 0806/0906 02006KT P6SM SCT250
     FM081700 24009KT P6SM SCT040 SCT250=



    US Dept of Commerce
    National Oceanic and Atmospheric Administration
    National Weather Service
    1325 East West Highway
    Silver Spring, MD 20910
    Page Author: NWS Internet Services Team
Disclaimer
Information Quality
Credits
Glossary
Privacy Policy
Freedom of Information Act (FOIA)
About Us
Career Opportunities